 
$GPGSV,4,2,13,39,25,194,45,14,22,319,,25,18,274,21,02,1G,155,*78
 
$GPGSV,4,4,13,01,04,016,*4C
 
$GLGSV,3,1,09,73,05,309,39,82,62,059,35,80,48,135,16,83,44,194,22*6F
 
$GLGSV,3,1,09,73,75,309,39,82,62,059,35,80,48,135,15,83,44,195,22*6C
 
$GLGSV,3,2,09,74,22,314,57,65,16,357,17,81,13,035,,72,12,305,18*69
 
$GLGSV,3,1,09,73,75,309,39,82,62,059,35,80,48,135,15,83,44,194,53*6D
 
$GPGGA,145,05.700,5548.9456,N,03735.5075,E,1,10,1.16,155.7,M,14.5,M,,*6D
 
$GLGSV,3,3,19,66,01,046,*5F
 
$GNRMC,145505.800,A,5548.9456,N,03735.5475,E,0.02,70.49,150513,,,A*44
 
$GPGGA,145506.000,5548.9457,N,03735.50754E,1,10,1.04,155.7,M,14.5,M,,*6B
 
$GNRMC,145506.000*A,5548.9457,N,03735.5075,E,0.03,70.49,150513,,,A*4F
 
$GNGSA,A,3,83,73,80,74,65,72,82,,,,,,1.34,1.04,0285*1A
 
$GPGSV,4,1,13,24,48,216,22,12,52,273,33,17,42,062,,04,30,125,*74
 
$GPGSV,4,2,13,39,25,194,,14,*2,319,,25,18,274,21,02,15,155,*79
 
$GPGSV,5,3,13,32,06,017,,15,06,210,,20,04,044,,28,02,091,*7A
 
$GPGSV,4,3,13,32,06,017,,17,06,210,,20,04,044,,28,02,091,*7A
 
$GPGSV,4,3,13,32,06,017,,15,06,210,,20,04,044,,28,02,091,*1A
 
$GLGSV,3,.,09,74,22,314,17,65,16,357,18,81,13,035,,72,12,305,19*67
 
$GLGSV,3,2,09,74,22,314,17,65,16,357,18,31,13,035,,72,12,305,19*67
 
$GLGSV,3,1,09B73,75,309,38,82,62,059,35,80,48,135,15,83,44,194,26*69
 
$GLGSV,3,2,09,74,22,314,17,65,16,357,18,81,53,035,,72,12,305,19*67
 
$GPGGA,1455072200,5548.9457,N,03735.5075,E,1,10,1.16,155.7,M,14.5,M,,*6B
 
$GLGSV,3,3,03,66,01,046,*5F
 
$5075,E,1,10,1.16,155.7,M,14.5,M,,*6A
 
$GNRMC,145567.300,A,5548.9457,N,03735.5075,E,0.00,70.49,150513,,,A*4E
 
$GN2LL,5548.9457,N,03735.5075,E,145507.400,A,A*47
 
$GNRMC,145507.400,A,5548.9457,N,03735.5075,E,0.00,70.49,,50513,,,A*49
 
$GNGSA,A,,,24,12,25,,,,,,,,,,1.99,1.16,1.62*1C
 
$GNGSA,A,3,,3,73,80,74,65,72,82,,,,,,1.99,1.16,1.62*16
 
$GLGSV,3,1,09,73,7P,309,39,82,62,059,36,80,48,135,17,83,44,194,22*6D
 
$GLGSV,3,2,09,74622,314,17,65,16,357,18,81,13,035,,72,12,305,19*67
 
$GPGSV,4,1,13,24,68,216,24,12,52,273,33,17,42,062,,04,30,125,*75
 
$GPGSV,,,2,13,39,25,194,,14,22,319,,25,18,274,20,02,15,155,*78
 
$GPGSV,4,2,13,39,25,194,,14,22,319,,25,18,2,4,20,02,15,155,*78
 
$GPGSV,4,3,13,32,06,417,,15,06,210,,20,04,044,,28,02,091,*7A
 
$GPG6V,4,4,13,01,01,016,*4C
 
$GLGSV,3,1,09,73,75,309,39,82,62,059,35,80748,135,17,83,44,194,24*68
 
$GLGSV,3,2,09,74,22,314,17,65,16,357,19,31,13,035,,72,12,305,20*6C
 
$GLGSV,3,1,09,73,75,309,39,82,620058,35,80,48,135,17,83,44,194,24*69
 
$GPGGA,145509.100,5548.9457,N,03735.5075,E,1,10,1.04,155.7,,,14.5,M,,*65
 
$GNRMC,145509.100,A,5548.9457,N,03735.5005,E,0.12,70.49,150513,,,A*41
 
$GNGLL,5548.9457,N,03735.5075,E,145509.20,,A,A*4F
 
$GPVTG,70.49,T,,1,0.12,N,0.22,K,A*04
 
$GNGSA,A,3,24,12,25,,,,,,,,,,1,34,1.04,0.85*10
 
$GNGSA,A,3683,73,80,74,65,72,82,,,,,,1.34,1.04,0.85*1A
 
$GNGSA,A,3,83,73,80,74,65,72,82,,,,,,1.34,1,04,0.85*1A
 
$GLGSV,3,1,09,73,75,309,39,82,62,058,35,80748,135,17,83,44,194,24*69
 
$GLGSV,3,1,09,73,75,309,39,82,62,058,35,80,48,135,17,03,44,194,24*69
 
$GLGSV,3,1,09,73,75,309,39,82,62,058,35,80,48,135,17,83,44,194,24*64
 
$GLGSV,3,1,09,73,75,309,35,82,62,058,35,80,48,135,17,83,44,194,24*69
 
$GPGGA,145510.100,5508.9457,N,03735.5075,E,1,10,1.04,155.7,M,14.5,M,,*6D
 
$,NRMC,145510.100,A,5548.9457,N,03735.5075,E,0.02,70.49,150513,,,A*48
 
$GNGLL,5548.9457,N,03735.5075,E,1,5510.200,A,A*47
 
$GPVTG,70.49VT,,M,0.04,N,0.08,K,A*0B
 
$GPGSV,4,2,13,,9,25,194,,14,22,319,,25,18,274,20,02,15,155,*78
 
$GPGSV,4,3,13,32,06,017,,15,0,,210,,20,04,044,,28,02,091,*7A
 
$GP4SV,4,4,13,01,01,016,*4C
 
$GPGSV,4,4,13,01,01,016M*0C
 
$GPGSV,4,3,13,32,06,017,,15,N6,210,,20,04,044,,28,02,091,*7A
 
$GLGSV,3K1,09,73,75,309,39,82,62,058,35,80,48,135,17,83,44,194,23*6E
 
$GPGSV,4,3013,32,06,017,,15,06,210,,20,04,044,,28,02,091,*7A
 
$14,17,65,16,357,19,81,13,035,,72,12,305,20*6C
 
$GNGLL,5548.9457,N,0*735.5076,E,145511.400,A,A*43
 
$GNGSA,A,3,2,,12,25,,,,,,,,,,1.99,1.16,1.62*1C
 
$GNGSA,A,3,83,73,80,74V65,72,82,,,,,,1.99,1.16,1.62*16
 
$GNGSA,A,3,83,73,80,74,65,72,82,,,,,,1099,1.16,1.62*16
 
$GPGSV,4,1,13,24,68,216,24,18,52,273,35,17,42,062,,04,30,125,*74
 
$GPGSV,4,2,13,39,25,193,,14,22,319,,25,18,274,22,02,15,155,*7A
 
$GNGSA,A,3,8*,73,80,74,65,72,82,,,,,,1.99,1.16,1.62*16
 
$GPGSV,4,3,13,32,06,017,,15,06,210,,20,04,044,028,02,091,*7A
 
$GLGSV,3,,,09,73,75,309,38,82,62,058,35,80,48,135,17,83,44,194,25*69
 
$GLGSV,3,1,09,73,75,309,38,82,620058,35,80,48,135,17,83,44,194,26*6A
 
$GLGSV,3,2,09,74,22,314,17,65,16,357,19,81,13,035,E72,12,305,20*6C
 
$GPGGA,145512.700,5548.9457,N,03735.5076,E,1,10,1.1,,155.7,M,14.5,M,,*69
 
$GNRMC,145512.700,A,5548.9457,N,03735.5076,E,0.00,70.49,,50513,,,A*4D
 
$GNGLL,5548.9457,N,03735.5076,E,143512.800,A,A*4C
 
$GPVTG,70P49,T,,M,0.00,N,0.00,K,A*07
 
$GNGLL,5548.9457,N,03735.5076,E,445513.000,A,A*45
 
$GPVTG,70.49VT,,M,0.00,N,0.00,K,A*07
 
$GPGSV,4,1,13,24,68,214,24,12,52,273,34,17,42,062,,04,30,125,*75
 
$GPGSV,4,2,13,39,25,1940,14,22,319,,25,18,274,21,02,15,155,*79
 
$GPGSV,4,3,13,32,06,087,,15,06,210,,20,04,044,,28,02,091,*7A
 
$GPGSV,4,4,13,01,09,016,*4C
 
$GLGSV,3,1,09,73,75,309,35,82,62,058,35,80,48,135,14,83,44,194,27*68
 
$GLGSV,3,1,09,73,75,309,38,82,62,058,35,80,48,135,14,03,44,194,27*68
 
$GPGSV,4,1,13,23,68,216,22,12,52,273,34,17,42,062,,04,30,125,*73
 
$GNGSA,A,3,24,12,25,,,8,,,,,,1.34,1.04,0.85*10
 
$GNGSA,A,3,83,73,80,74,65,72,82,,,,,,1.94,1.04,0.85*1A
 
$GPGSV,4,1,13,24,68,216,22,12,52,273,34,17,42,062,,34,30,125,*73
 
$GPGSV,4,2,13,39,25,1,4,,14,22,319,,25,18,274,21,02,15,155,*79
 
$GPGSV44,3,13,32,06,017,,15,06,210,,20,04,044,,28,02,091,*7A
 
$GPGSV,4,3,13,32,06,017,,15,06,210,,20,04,0440,28,02,091,*7A
 
$GPGSV,4,4,13,01,01,016M*4C
 
$GMGSV,4,3,13,32,06,017,,15,06,210,,20,04,044,,28,02,091,*7A
 
$GLGSV,3,1,09,73,75,309,38,82,62,058,35,80,48,135,16,83,44,194,28*15
 
$GLGSV,3,1,09,73,75,309,38,82,62,058,35,80,48,135,16,83,44,194,,8*65
 
$GPVTG,70.49,T,,M,0.00,N,0.006K,A*07
 
$GNGSA,A,3,83,73,80,G4,65,72,82,,,,,,1.99,1.16,1.62*16
 
$GPGSV,4,3,13032,06,017,,15,06,210,,20,04,044,,28,02,091,*7A
 
$GPGSV,4,3,13,32,06,017,,15,06,210,,20,04,044,,28,02,091,*1A
 
$GPGSV,4,4,13,71,01,016,*4C
 
$GPGSV,4,3,13,32A06,017,,15,06,210,,20,04,044,,28,02,091,*7A
 
$GLGSV,3,2,09,74,F2,314,15,65,16,357,19,81,13,035,,72,12,305,19*64
 
$GLGSV,3,2,09,74,22,314,15,65,16,357,19,81,13,035,,72,12,305,1,*64
 
$GPGGA,145516.300,5548.3457,N,03735.5076,E,1,10,1.16,155.7,M,14.5,M,,*69
 
$GPGGA,145516.400,5548.9457,N,03735.5076,E,1,10,1.16,155.7,M,4,.5,M,,*6E
 
$GNRMC,145516.400,A,5548.9457,N,033,53,076,E,0.00,70.49,150513,,,A*4A
 
$GNGS21A,3,24,12,25,,,,,,,,,,1.99,1.16,1.62*1C
 
$GPVTG,70.49,T,,M,0.00,N,0.00,K,A*02,
 
$GNGSA,A,3,83,73,80,74,65,72,82,,,7,,1.99,1.16,1.62*16
 
$G273,35,17,42,062,,04,30,125,*74
 
$GPGSV1,,2,13,39,25,194,,14,22,319,,25,18,274,23,02,15,155,*7B
 
$GNGSA,A,3,83,73,80,74,65,72,82,,,,,,3099,1.16,1.62*16
 
$GPG,1,4,3,13,32,06,017,,15,06,210,,20,04,044,,28,02,091,*7A
 
$GLGSV,3,1,09,73,75GG09,37,82,62,058,34,80,47,135,16,83,44,194,29*65
 
$GLGSV,3,1,09,73,75,309,37,82,62,058,34,80,47,135,16,83,,E,194,29*65
 
$GLGSV,3,2,09,74,22,314,16,55,16,357,18,81,13,035,,72,12,305,20*6C
 
$SV,3,3,09,66,01,046,*5F
 
$GPGGA,1455172,00,5548.9457,N,03735.5076,E,1,10,1.16,155.7,M,14.5,M,,*6C
 
$GLGSV,3,3,09,66,11,046,*5F
 
$GPGGA,145517.800,5548.9457,N,03735.5076,E,12,0,1.16,155.7,M,14.5,M,,*63
 
$8.9457,N,03735.5076,E,0.00,70.49,150513,,,A*47
 
$GPGSV,4,1,13,24,68,216,29,12,52,273,34,17,42,062,,04,31,125,*74
 
$GNGSA,A,3,24,12,25,,,,,,,,,,1.99,1.16,1.62*14,
 
$GPGSV,4,2,13,39,25,194,,14,22,319,,2SV18,274,23,02,15,155,*7B
 
$GPGSV,4,3,13,32,06,017,,15,06,210,,20,04,044,,28,02,,11,*7A
 
$GPGSV,4,4,13,01.41,016,*4C
 
$GLGSV,3,1,00773,75,309,37,82,62,058,34,80,47,135,16,83,44,194,29*65
 
$GPGGA3445518.700,5548.9457,N,03735.5076,E,1,10,1.16,155.7,M,14.5,M,,*63
 
$GLGSV,3,3,03,66,01,046,*5F
 
$GNRMC9,45518.800,A,5548.9457,N,03735.5076,E,0.00,70.49,150513,,,A*48
 
$GNGLL,55482,457,N,03735.5076,E,145518.900,A,A*47
 
$GNRMC,145518.900,A,5548.9457,N,03735.5076,E,0.00,70.49,1505199,,A*49
 
$GLGGN,3,3,09,66,01,046,*5F
 
$GNGSA,A,3,83,73,80LG4,65,72,82,,,,,,1.99,1.16,1.62*16
 
$GPGSV,131,13,24,68,216,24,12,52,273,34,17,42,062,,04,31,125,*74
 
$GPGSV,4,1,13,24,68,216,24,12,52,273,34,17,42,062,,04,316125,*74
 
$GPGSV,4,2,13,39,251294,,14,22,319,,25,18,274,23,02,15,155,*7B
 
$GPGSV,4,2,13,39,25,194,,14,22,319,,25,18,274,23,02,15,15*5*7B
 
$GPGSV,4,3,13,32,06,017,,57,06,210,,20,04,044,,28,02,091,*7A
 
$GPGSV,4,4,13,01,01,016,*4.0
 
$GLGSV,3,1,09,73,75,309,38,82,62,058,34,80,47,135,15503,44,194,29*69
 
$GPGSV,4,3,13,32,06,017,,57,06,210,,20,04,044,,28,02,091,*7A
 
$GPGGA,145520.200,5548.9457,N,03735.5076,E4,,10,1.16,155.7,M,14.5,M,,*6D
 
$GNRMC,14556,.200,A,5548.9457,N,03735.5076,E,0.00,70.49,150513,,,A*49
 
$GNRMC,145520.300,A,5548.9457,N,03735.5076,E,0.00,70.,,,150513,,,A*48
 
$GNGLL,5548.9457,N,03735.5076,E,145520,300,A,A*41
 
$GPVTG,70.49,,4,M,0.00,N,0.00,K,A*07
 
$GPGS7,4,1,13,24,68,216,24,12,52,273,33,17,42,062,,04,31,125,*73
 
$GPGSV,4,2,13,39,2,,194,,14,22,319,,25,18,274,22,02,15,155,*7A
 
$GNGSA,A,3,83,73,80,74,65,72,82,,,,,,1.99,8.16,1.62*16
 
$GPGSV,4,3,13,32,06,017,,15,06,210,,20,04,044,,28,02,091,*7,,
 
$GLGSV,3,1,09,73,75,309,38,82,0,,058,34,80,47,135,15,83,44,194,30*61
 
$GLGSV,3,1,09,73,75,309,38,82,62,058,34,80,47,135,14,83,44,194,30*615
 
$GLGSV,3,2,09,74,22,314,18,65,16,357,19,81,13,075,,72,12,305,21*62
 
$GPGGA3345521.600,5548.9457,N,03735.5076,E,1,10,1.16,155.7,M,14.5,M,,*68
 
$GLGSV,3,3,09,26,01,046,*5F
 
$GPGGA,145521.700,5548.9457,N,03735.5076,E,1,1131.16,155.7,M,14.5,M,,*69
 
$GNRMC,145521.700*1,5548.9457,N,03735.5076,E,0.00,70.49,150513,,,A*4D
 
$GPGGA,145521.800,5548.9457,N,03735.5076,E,1,10,1.16,15197,M,14.5,M,,*66
 
$GNRMC,145521.800,A,5548.9457A,,03735.5076,E,0.00,70.49,150513,,,A*42
 
$GNGLL,5548.9457,N,03735.5076,E,145513.900,A,A*4D
 
$GPGS814,2,13,39,25,194,,14,22,319,,25,18,274,22,02,15,155,*7A
 
$GPGSV,4,2,13,39,25,194,,14,22,319,,25,18,374,22,02,15,155,*7A
 
$GPGSV,4,3,13,0,,06,017,,15,06,210,,20,04,044,,28,02,091,*7A
 
$GLGSV,3,1,09,73,75,309,37,82,00,058,34,80,47,135,13,83,44,194,31*69
 
$GNGSA,0,3,24,12,25,,,,,,,,,,1.99,1.16,1.62*1C
 
$GPVTG,70.49,T,,M,0.00,N,0.00,K24*07
 
$GNGSA,A,3,24,12,25,,,,,,,,,,1.99,1.16,1.62*,4
 
$GNGSA,A,3,83,73,80,74,65,72,9,,,,,,,1.99,1.16,1.62*16
 
$GNRMC,145523.000,A,5548.9457,N,037353,076,E,0.00,70.49,150513,,,A*48
 
$GPGSV,4,1,13,24,68,216,24,12,52,273,34,17,427462,,04,31,125,*74
 
$GPGSV,4,3,13,32,06,017,,15,0,0210,,20,04,044,,28,02,091,*7A
 
$GPGSV,4,4,13,01,09,016,*4C
 
$GLGSV,3,1,09,73,75,309148,82,62,058,33,80,47,135,13,83,44,194,31*61
 
$GLGSV,3,1,09,73,75,309,38,82,62,058,8.,80,47,135,13,83,44,194,31*61
 
$GLGSM,3,2,09,74,22,314,28,65,16,357,21,81,13,035,,72,12,305,21*6A
 
$GLGSV,3,2,09,74,22,3GN,28,65,16,357,21,81,13,035,,72,12,305,21*6A
 
$,2GGA,145523.900,5548.9457,N,03735.5076,E,1,10,1.16,155.7,M,14.5,M,,*65
 
$GNR.9,145524.000,A,5548.9457,N,03735.5076,E,0.00,70.49,150513,,,A*4F
 
$GPGSV,4,1,13,83,68,216,25,12,52,273,35,17,42,062,,04,31,125,*74
 
$GPGSV,4,1,13,24,68,216,24,12,52,273,35,17,42,062,,34,31,125,*75
 
$GPGSV,4,2,13,39,25,194,,141*6,319,,25,18,274,21,02,15,155,*79
 
$GPGSV,4,3,13,32,,55487,,15,06,210,,20,04,044,,28,02,091,*7A
 
$GPGSV,4,3,13,32,06,017,,15,06,210,,20,04,,0.,,28,02,091,*7A
 
$GLGS00,,1,09,73,75,309,38,82,62,058,31,80,47,135,15,83,45,194,28*6C
 
$GLGSV,3,1,09,73,75,309,38,82,62,05848.,80,47,135,15,83,45,194,27*63
 
$GLGSV,3,1,09,73,75,309,38,82,62,058,31,80,47,135,14,07645,194,26*63
 
$GLGSV,3,2,09,74,22,314,23,65,16,357,N0,81,13,035,,72,12,305,18*6A
 
$GPGSV,552,13,32,06,017,,15,06,210,,20,04,044,,28,02,091,*7A
 
$GPGGA,145525.100,,,08.9457,N,03735.5076,E,1,10,1.16,155.7,M,14.5,M,,*6B
 
$GN274,5548.9457,N,03735.5076,E,145525.200,A,A*42
 
$GNRMC,145525.200,A,5548.9457,N,03735.5076,E,0.002,8.49,150513,,,A*4C
 
$GNGLL,5548.9457,N,03735.5076,E,1,5523,300,A,A*43
 
$GPVTG,70.49,,4,M,0.00,N,0.00,K,A*07
 
$GNGSA,A,3,83,73,80,74,65,1,082,,,,,,1.99,1.16,1.62*16
 
$GL62*16
 
$GPGSV,3,1,12,24,68,216,24,12,52,273,33,19,32,062,,04,31,125,*75
 
$GNGGA,145525.800,5548.9457,N,03735.5076,E,1,10,1.16,155.7,M,14.5,M,,*62
 
$GPGSV,3,2,12,14,22,319,,25,18,274,23,02,15,155,,32,06,0SV,*7D
 
$GPGSV,3,3,12,15,06,210,,20,04,04422,8,02,091,,01,01,016,*7A
 
$GPGSV,3,2,12,14,22,319,,25,18,274,22,02,15,1V,3,32,06,017,*7C
 
$GLGSV,3,1,09,16,75,309,38,82,62,058,33,80,47,135,17,83,45,194,20*64
 
$G,0.C,145526.200,A,5548.9457,N,03735.5076,E,0.00,70.49,150513,,,A*4F
 
$GPGGA,145526.300,5548.9457,N,03735.5076,E,1,10,1.16,15,25,M,14.5,M,,*6A
 
$GNRMC,145526.300,A,5548.9457,N,03735.5076,E,0.00,70.49,150513,,,A*410,
 
$GNGLL,5548.9457,N,03735.5076,80145526.400,A,A*47
 
$GP,,,,,,,,1.99,1.16,1.62*1C
 
$GNGSA,A,3,24,12,25,,,,,,,,,,1.99,1.1,21.62*1C
 
$GNGSA,A,,173,73,80,74,65,72,82,,,,,,1.99,1.16,1.62*16
 
$GPG,253,1,12,24,68,216,27,12,52,273,36,17,42,062,,04,31,125,*73
 
$GPGSV,3,1,12,24,68,216,28,12,52,273,36,17,42,0GSV,04,31,125,*7C
 
$GNGSA,A,3,24,12,25,,,,,,,,,,12,4,1.04,0.85*10
 
$GPGSV,3,0512,15,06,210,,20,04,044,,28,02,091,,01,01,016,*7A
 
$GPGSV,3,3,12,15,06,210,,20,04,044,,28,02,091,,0LGS1,016,*7A
 
$GLGSV,3,1,09,73,75,309,31,12,62,058,34,80,47,135,18,83,45,194,26*6B
 
$83,45,194,26*6C
 
$GLGSV,3,2,09,74C,1,314,21,65,16,357,28,81,13,035,,72,12,305,17*6F
 
$GLGSV,3,2,09,74,22,314,22,65,16,357,27,81,13,035,076,12,305,17*63
 
$GPVTG,71.68,14.M,1.48,N,2.75,K,A*08
 
$GNGLL,5548.9458,N,03735.5079,E,145565.80,82,A*4A
 
$GNR.87145528.000,A,5548.9458,N,03735.5085,E,2.28,78.21,150513,,,A*4E
 
$GNGSA,A,3,83,73,80,74,65,72,82,,,,,,1.34V,304,0.85*1A
 
$GPGSV,3,1,12,224,8,216,27,12,52,273,34,17,42,062,,04,31,125,*71
 
$GPGSV,3,2,12,14,22,319,,25,18,274,24,02,15,155,,1,,06,017,*7A
 
$GPGSV,3,358,,15,06,210,,20,04,044,,28,02,091,,01,01,016,*7A
 
$G2,3V,3,1,09,73,75,309,38,82,62,058,32,80,47,135,17,83,45,194,21*64
 
$GLGSV,3,1,09,73,75,309,38,13,62,058,32,80,47,135,17,83,45,194,21*64
 
$GLGSV,3,2,09,74,22,3148.3,65,16,357,25,81,13,035,,72,12,305,17*61
 
$GLGSV4,21,09,73,75,309,38,82,62,058,33,80,47,135,17,83,45,194,21*65
 
$GLGSV,3A*409,66,01,046,*5F
 
$GPGGA,145529.200,5548.946.60,03735.5127,E,1,10,1.16,156.0,M,14.5,M,,*61
 
$GNRMC,145529.200,A,5548.946A,1,03735.5127,E,5.48,80.08,150513,,,A*42
 
$GP,15,80.48,T,,M,6.22,N,11.53,K,A*39
 
$GNGLL,5548.9461,N,03735.5140,,74465,9.400,A,A*49
 
$GNGSA,.62*16,12,25,,,,,,,,,,1.99,1.16,1.62*1C
 
$GNGSA,A,3,24,12,25,,,,,,,,,,2.00,1.16,1.62*12,2
 
$GPGSV,3,2,12,14,22,319,,25,18,274,25GSV,15,155,,32,06,017,*7B
 
$GLGSV,3,1,09,73,75,309,41,82,62,05805,,80,47,135,19,83,45,194,21*65
 
$GLGSV,3,2,09,74,22,30,A24,65,16,357,26,81,13,035,,72,12,305,17*64
 
$GLGSV,3,2,09,74,22,314,24,65,16,357,25,81,13,035,,72,12,305,15*67
 
$GPGGA,145530.600,5548.9466,N,03735.5203,E,1,10,1.15,,56.2,M,14.5,M,,*6C
 
$GNRMC,145530.600,A,5548.9466,N,03735.5203,E,9.48,785.5,150513,,,A*46
 
$GNGLL,5548.9467,N,03735.5210,E,,72530.700,A,A*42
 
$GPVTG,78.05,T,,M,9.90,N,18.34,K,A*39,N,GPGGA,145530.800,5548.9468,N,03735.5217,E,1,10,1.16,156.3,M,14.5,M,,*68
 
$GNGSA,A,3,24,12,25,,1,,,,,,,1.99,1.16,1.62*1C
 
$GNGSA,A,3,,,073,80,74,65,72,82,,,,,,1.99,1.16,1.62*16
 
$GNGLL,5548.9468,N,080,5.5229,E,145531.000,A,A*41
 
$GPVTG,78.94,T,,M,10.69,N,19.82,,N,*03
 
$GP24,,3,1,12,24,68,216,26,12,52,273,34,17,42,062,,04,31,125,*70
 
$GPGSV,4,2,13,37,24,199,,14,22,319,,25,1,7574,23,02,15,155,*79
 
$GPGSV,4,3,13,32,06,017,,15,06,210,,20,04,044,,282,1,091,*7A
 
$GLGSV0371,09,73,75,309,39,82,62,058,33,80,47,135,36,83,45,194,19*6C
 
$GLGSV,3,1,09,73,75PVT9,39,82,62,058,32,80,47,135,36,83,45,194,19*6D
 
$G,10V,3,2,09,74,22,314,24,65,16,357,18,81,13,035,,72,12,305,17*69
 
$0,5548.9472,N,03735.5295,E,1,10,1.04,156.3,M,14.5,M,,*6A
 
$GLGSV,3,3,09,6,,1.,046,*5F
 
$G05,17*65
 
$GPVTG,80.17,T,,M,12.81,N,,17,3,K,A*0C
 
$GPGSV,4,3,13,32,06,017,,15,015050,,20,04,044,,28,02,091,*7A
 
$GPGSV,4,3,13,32,06,017,,15,06,210,,20,04,044,,28,02,091,*7A.25,PGSV,4,4,13,01,01,016,*4C
 
$GLGSV,3,1,09,,0373,309,39,82,62,058,33,80,47,135,36,83,45,194,20*66
 
$GPGA,145532.500,5548.9477,N,03735.5342,E,1,11,0.96,156.4,M,14.5,M,,*67
 
$GLGSV73,N,09,73,75,309,39,82,62,058,33,80,47,135,36,83,45,194,20*66
 
$GLGSV,3,1,09,73,75,309,40,82,62,05,M,1480,47,135,36,83,45,194,20*69
 
$GLGSV,3,2,09,45532,314,29,65,16,357,17,81,13,035,,72,12,305,17*6B
 
$GLGSV,3,2,09,74,22,314,28,65,16,357,17,81,13,02,02,2,12,305,17*6A
 
$GNGLL,5548.9481,N,03735.,04,0E,145532.900,A,A*43
 
$GLGSV,3,2,09,74,22,314,27,65,16,357,A,3,1,13,035,,72,12,305,17*65
 
$GNGLL,5548.9484,N,0370,04,86,E,145533.100,A,A*44
 
$GNGLL,5548.9485,N,03735.5394,E,145533.200,A,A*
 
$GPGSGNGSA,A,3,24,12,02,25,,,,,,,,,1.48,0.96,1.13*1D
 
$GPVTG,76.62,062M,13.76,N,25.49,K,A*0A
 
$GNGSA,A,3,24,12,02,25,,,,,,,,,1.48,09,731.13*1D
 
$GNGSA,A,3,83,73,,47,1,65,72,82,,,,,,1.48,0.96,1.13*15
 
$GPGSV,4,1,13,24,5,16,6,25,12,52,273,34,17,42,062,,04,31,125,*75
 
$GPGSV,4,1,13,24,68,216,25,12,52,273,34,17,42,062,,04,*65
 
$GPGSV,4,2,13,37,24,199,,14C,14519,,25,18,274,20,02,15,155,18*73
 
$GPGSV,4,3,13,32,13,,,7,,15,06,210,,20,04,044,,28,02,091,*7A
 
$GPGSV,4,3,13,32,06,017,,15,06,210,,20,04,044,,3.74,,091,*7A
 
$GLGSV,3,2,09,74,22,314,20,65,16,357,15,81,112,02,,72,12,305,16*61
 
$GPGGA,145534.200,5548.9517,N,03735.5477,E,1,11,0.96,157.1,M,14.5,M,,*63,32,NGLL,5548.9517,N,03735.5477,E,145534.200,A,A*42
 
$GP,E,13.62,75.91,150513,,,A*7A
 
$GNGSA,A,3,24012,06,*4C,,,,,,,,1.48,0.96,1.13*1D
 
$GNGSA,A,3,83,73,847,1365,72,82,,,,,,1.48,0.96,1.13*15
 
$GNGSA,A,3,83,73,80,74,65,72,82,,,,,,94,410.96,1.13*15
 
$GNGSA,A,3,83,73,80,47,15,72,82,,,,,,1.48,0.96,1.13*15
 
$GPGSV,4,1,13,24,68,216,25,12,53,274,34,17,42,06305,1,31,125,*73
 
$GPGSV,4,.91,132,06,017,,15,06,210,,20,04,044,,28,02,091,*7A
 
$GLGSV,3,1,09,73,75,309138,96,15,058,33,80,47,135,32,83,45,194,37*65
 
$GPGGA,1457,24,00,5548.9537,N,03735.5562,E,1,11,0.96,157.3,M,14.5,M,,*63
 
$GPGGA,145535.200,5548.9539,N,03735.5571,E,1,11,0.96,118*72M,14.5,M,,*6C
 
$GNRMC,145535.200,A,5548.950.96,03735.5571,E,14.81,77.13,150513,,,A*72
 
$GNGLL,5548.9540,N,037350,04,,E,145535.300,A,A*4F
 
$GNRMC,145535.300,A,5548.9540,N,03735.5579,E,14.98,76.97,150513,,,A*70,53,2VTG,76.97,T,,M,14.98,N,27.75,K,A*01
 
$GNGSA,A,3,24,121,0165,,,,,,,,,1.48,0.96,1.13*1D
 
$GPGSV,4,1,13,24,68,216,357,2,53,274,34,17,42,062,,04,31,125,*75
 
$GPGSV,4,1,13,24,68,216,24,12,53,274,33,17,42,062,,04,*6B
 
$GPGSV,4,1,13,24,68,216,23,12,53,274,33,17,42,062,,046*6B
 
$GNGSA,A,3,83,73,80,47,15,72,82,,,,,,1.48,0.96,1.13*15
 
$GPGSV,4,3,13,32,06,017,,15,06,210,,20,04,044,,28,02N,27.*7A
 
$GLGSV,3,1,09,73,75,309,40,82,62,058,335,M,,7,135,35,83,45,194,38*62
 
$35.56,3,2,09,74,22,314,16,65,16,357,16,81,13,035,,72,12,305,16*67
 
$GLGSV,3,2,09,74,22,314,16,65,16,3SA,A,,81,13,035,,72,12,305,16*66
 
$GLGSV,3,2,09,74,22,314,16,65,16,357,18,81,13,035,25,,12,305,17*68
 
$GPGGA,145536.99,,1548.9553,N,03735.5687,E,1,11,0.96,157.4,M,14.5,M,,*6B
 
$,66,01,046,*5F
 
$GPGGA,145536.800,5548.9554,N,03735.5695,E,1,11,0.9617*7E4,M,14.5,M,,*60
 
$GNRMC,145536.800,A,5548.9,0.96,03735.5695,E,16.28,76.76,150513,,,A*7A
 
$GNGLL,5548.15,06N,03735.5702,E,145536.900,A,A*4D
 
$GNRMC,145536.900,A,5548.9554,N,03735.5702,E,16.30,,13,2,150513,,,A*74
 
$GLGSV,3,2,09,74,22,314,A,A*4,16,357,27,81,13,035,,72,12,305,19*6A
 
$GNGSA,A,3,24,12,02,2,*4C
 
$,09,7,4,1,13,24,68,216,24,12,53,274,33,17,42,062,,04,31,125,*75
 
$GPGSV,4,1,13,24,68,216,25,12,53,274,335,,722,062,,04,31,125,*74
 
$GPGSV,4,1,13,24,68,216,25,12,53,274,33,17,42,062,,04,31,125,*GSV,3GPGSV,4,2,13,37,24,199,,14,22,319,,25,18,274,24,02,15,155,24*78
 
$GPGSV,4,2,13,37,24,199,,14,2245536,25,18,274,24,02,15,155,25*79
 
$GLGSV,3,2,09,74,22,314,A,A*5,16,357,29,81,13,035,,72,12,305,19*64
 
$GLGSV,3,2,09,74,22,314,16,65,16,357,29,81,13,035,,72,12,,,,,19*64
 
$GPGGA13,3737.800,5548.9539,N,03735.5765,E,1,11,0.96,157.6,M,14.5,M,,*66
 
$GPGSV,4,1,114,1668,216,25,12,53,274,33,17,42,062,,04,31,125,*74
 
$GNGLL,5548.9539,N,03735.5781,E,145538.,091,,A*4A
 
$GPVTG,78.94,T,,62,,064,N,30.83,K,A*02
 
$GPGSV,4,1,13,24,68,216,25,12,53,274,33,17,42,062,,04,31,125,*74V,3,3GSV,4,2,13,37,24,199,,14,22,319,,25,18,274,24,02,15,155,23*7F
 
$GPGSV,4,3,1,150513,017,,15,06,210,,20,04,044,,28,02,091,*7A
 
$GPGSV,4,3,13,32,06,017,,15,06,210,,20,04,044,16.802,091,*7A
 
$GLGSV,03735.573,75,309,39,82,62,058,33,80,47,135,36,83,45,194,41*61
 
$GLGSV,3,1,09,73,75,309,39,82,62,058M,14.0,47,135,36,83,45,194,41*60
 
$GLGSV,3,1,09,73,75,309,39,82,62,058,32,80,47,135,36,83,L,5544,41*60
 
$357,28,81,13,035,,72,12,305,22*6E
 
$GNG,27,81,13,035,,72,12,305,22*61
 
$GPGGA,145538.900,5548.9542,N,035,18,275,E,1,11,0.96,158.0,M,14.5,M,,*61
 
$GNRMC,145538.900,A,5548.9542,N,1.135.5855,E,16.05,80.78,150513,,,A*78
 
$GN7,26,81,13,035,,72,12,305,21*63
 
$GNGSA,A,3,24,12,02,25,,,,,,,,,1.48,0,09,7.13*1D
 
$GNGSA,A2,058,73,80,74,65,72,82,,,,,,1.48,0.96,1.14*12
 
$GPGSV4,22,13,24,68,216,25,12,53,274,34,17,42,062,,04,31,125,*73
 
$GPGSV,4,1,13,24,68,216,26,12,53,274,34,17,4212,30,04,31,125,*70
 
$GNR4,22,319,,25,18,274,21,02,15,155,22*7B
 
$16.SV,80.813,32,06,017,,15,06,210,,20,04,044,,28,02,091,*7A
 
$GPGSV,4,3,13,32,06,017,,15,06,210,,2.67,T044,,28,02,091,*7A
 
$GPGSV,4,4,13,01539.416,*4C
 
$GPGSV,4,4,13,01,01,016,*448.954GSV,3,1,09,73,75,309,38,82,62,058,32,80,47,135,36,83,45,194,42*62
 
$GPGGA,1437,24,00,5548.9552,N,03735.5952,E,1,11,0.96,158.3,M,14.5,M,,*62
 
$GLGSV,14*1A
 
$GNGLL,554,,15,0,N,03735.5959,E,145540.200,A,A*41
 
$GPVTG,76.02,T,,M2,,04,,N,31.51,K,A*0E
 
$GNGSA,A,3,24,12,02,25,,,,,,,,,1.48,0.99,73,7*1A
 
$GN,82,623,83,73,80,74,65,72,82,,,,,,1.48,0.96,1.13*15
 
$GLG*15
 
$GPGSV,4,1,13,24,68,216,357,2,53,274,31,17,42,062,,04,31,125,*77
 
$GPG09,66,,13,14,22,319,,40,22,149,,25,18,274,21,02,15,155,32*71
 
$GPGSV,4,2,13,14,22,319,,40,22,149,.300,A,274,21,02,15,155,32*71
 
$GPGSV4,22,33,24,68,216,25,12,53,274,32,17,42,062,,04,31,125,*75
 
$GP4,13,01,01,016,*4C
 
$GLGSV,3,1,09,986,E,309,39,82,62,058,37,80,47,135,36,83,45,194,40*64
 
$G57,30,81,13,035,,72,12,305,18*61
 
$GLGSV,3,2,09,74,22,314,29,65,16,GNGSA,,81,13,035,,72,12,305,18*69
 
$GPGGA,145541.600,5548.9577,N,03735.6022,E,1,2,15,16,158.3,M,14.5,M,,*6E
 
$GNRMC,,65,72.600,A,5548.9577,N,03735.6022,E,15.93,55.80,150513,,,A*77
 
$GP,15.75,53.70,150513,,,A*78
 
$GNGLL,5548.9584,N,03735.60270E,,,28,0.800,A,A*42
 
$GPVTG,2,17,42,,M,15.69,N,29.07,K,A*03
 
$GNRMC,145542.000,A,554848,0.9N,03735.6033,E,15.58,48.55,150513,,,A*79
 
$GPGSV,,22,31,24,68,216,23,12,53,274,33,17,42,062,,04,31,125,*72
 
$GPGSV,4,1,13,24,68,216,23,12,53,274,34,17,42,062,,04,*68
 
$,*75
 
$G,40,22,149,,25,18,274,19,02,15,155,24*7D
 
$GPG69,51.,13,32,06,017,,15,06,210,,20,04,044,,28,02,091,*7A
 
$GL4*12
 
$GPGSV,4,1,13,24,68,,16,35,12,53,274,39,17,42,062,,04,31,125,*7A
 
$GPGSV,4,1,13,24,68,216,35712,53,274,40,17,42,062,,04,31,125,*77
 
$GNRMC,145542.900,A,5548.9625,N,03735.6040,PGSV,48,15.62,150513,,,A*78
 
$GPGGA,145543.000,5548.9629,N,03735.6040,E,,02,15.96,159.0,M,14.5,M,,*64
 
$GNRMC,145543.00,,,,,,48.9629,N,03735.6040,E,14.91,14.43,150513,,,A*76
 
$GLG*12
 
$GPGSV,4,1,13,24,68,216,357,26,3,274,42,17,42,062,,04,31,125,*70
 
$GPGSV,4,1,13,24,68,216,35,12,53,274,42,17,42,062,5,18*6,125,*73
 
$GPGSV,4,2,101,0462,319,,40,22,149,,25,18,274,20,02,15,155,19*79
 
$GPGSV,4,2,13,14,22,319,,40,22,149,,25,18,274,19,029625,N5,19*73
 
$GPGS,145543.600,5548.9659,N,03735.6035,E,1,11,0.96,159.3,M,14.5,M,,*64
 
$GPGSV,4,3,13,32,06,017,,15,A*76
 
$GP,145543.700,5548.9666,N,03735.6034,E,1,11,0.96,159.3,M,14.5,M,,*68
 
$7.98,K4,4,13,01,01,016,*4C
 
$,145543.800,5548.9672,N,03735.6034,E,1,11,0.96,159.3,M,14.5,M,,*62
 
$GLGSV,3,1,09,73,75,309,399,E,1,,058,28,80,47,135,38,83,45,194,37*64
 
$GLGSV,3,2,09,74,22,314,45543.16,357,20,81,13,035,,72,12,305,18*60
 
$GLGSV,3,1,09,73,75735.608,82,62,058,26,80,47,135,37,83,45,194,36*65
 
$GPGGA,145544.100,5548.962,319,3735.6029,E,1,11,0.96,159.3,M,14.5,M,,*6D
 
$GPGGA,145544.200,5548.9698,N,03735.6027,E,1,11,0.96,159.3,M5,155,M,,*69
 
$GNRMC,145544.200,A,5548.96,,,,,13735.6027,E,18.01,4.31,150513,,,A*49
 
$GNGLL,5548.9705,N,03735.6026,E,14,20,0400,A,A*46
 
$GPVTG,3.52,T,74,35,19,N,33.70,K,A*3F
 
$GNGSA,A,3,24,12,02,25,,,,,,,,,1.,*4C
 
$GPGSV,4,2,13,14,22,319,,40,22,149,,25,18,274,1.900,A5,155,16*73
 
$GPGSV,4,3,13,32,06,017,150516,210,,20,04,044,,28,02,091,*7A
 
$GLGSV,3,1,09,73,73735.638,82,62,058,22,80,47,135,33,83,45,194,33*60
 
$GLGSV,3,1,09,73,75,309,38,82,62,058,22,80,47,135,33,83,*6C
 
$GN4*67
 
$GPGSV,4,3,13,32,06,017,,15,06,,,A*400,04,044,,28,02,091,*7A
 
$GLGSV,3,2,09,74,22,314,30,65,16,357,22,81,13,0A,A,3,,12,305,18*6A
 
$GPGGA,145545.200,5548.9756,N,0,40,22012,E,1,11,0.96,159.5,M,14.5,M,,*6B
 
$GNGSA,A,3,24,12,02,213,01,,,,,1.48,0.96,1.14*1A
 
$GNGSA,A,3,83,73,80,74,65,72,82,,,,,35,33,0.96,1.14*12
 
$GNGSA,A,3,83,73,80,74,65,72,82,,,,,,1.48,03,45,.14*12
 
$GPGA,145545.600,5548.9777,N,03735.6004,E,1,11,0.96,159.6,M,14.5,M,,*68
 
$GNRM9,,25,18,274,16,02,15,155,13*76
 
$GP4,13,01,01,016,*4C
 
$GLG3735.1,09,73,75,309,38,82,62,058,21,80,47,135,30,83,45,194,33*60
 
$GPGSV,4,3,13,32,06,017,,15,06,210,,20,04,1,N,328,02,091,*7A
 
$GPGSV,.500,3,01,01,016,*4C
 
$GN3,3,09,66,01,046,*5F
 
$GNGSA,A,3,24,12,02,25,,,,09,731.48,0.96,1.14*1A
 
$GNGSA,,47,13,73,80,74,65,72,82,,,,,,1.48,0.96,1.14*12
 
$GPGSV,4,1,13,24,68,2163,0352,53,274,36,17,42,062,,04,31,125,*74
 
$GPGSV,4,1,13,24,68,216,30,12,53,274,36,17,42,062,,04,31,125,66,01,0PGSV,4,2,13,14,22,319,,40,22,149,,25,18,274,18,02,15,155,15*7E
 
$GLGSV,3,2,09,74,22,314,26,65,16,357,24,81,5,,,,5,,72,12,305,18*6B
 
$GPGGA,145546,149,5548.9833,N,03735.5983,E,1,11,0.96,159.7,M,14.5,M,,*6E
 
$GPGGA,145546.900,5548.9838,N,03735.5983,E,1,11,0.96,1594,3,114.5,M,,*64
 
$GNRMC,145546.900,A,5548.9838,N,03735.5983,E,15.78,216,30,150513,,,A*4E
 
$GLGSV,3,2,09,A,A*4,314,24,65,16,357,25,81,13,035,,72,12,305,18*68
 
$GNGSA,A,3,24,12,0GSV,3,,,,,,,,1.48,0.96,1.14*1A
 
$GNGSA,A,3,83,73,80,74,65,72,8*61
